Time;durP1;ratioP1;P1;durP2;ratioP2;P2;SDS_P1;SDS_P2;PMS_P1;PMS_P2;Temp;Humidity;BMP_temperature;BMP_pressure;BME280_temperature;BME280_humidity;BME280_pressure;Samples;Min_cycle;Max_cycle;Signal;HPM_P1;HPM_P2
2022/07/26 00:01:31;;;;;;;10.30;7.03;;;;;;;27.09;87.86;99762.63;5071930;28;20198;-73
2022/07/26 00:03:58;;;;;;;7.47;6.88;;;;;;;27.03;89.30;99763.00;5073882;28;20203;-73
2022/07/26 00:06:25;;;;;;;7.72;6.93;;;;;;;27.01;89.65;99764.88;5038461;28;20229;-74
2022/07/26 00:08:52;;;;;;;7.82;7.03;;;;;;;27.01;89.90;99756.91;5073732;28;20230;-73
2022/07/26 00:11:20;;;;;;;7.93;7.20;;;;;;;26.95;91.01;99757.25;5037723;28;20199;-74
2022/07/26 00:13:47;;;;;;;9.07;7.07;;;;;;;27.02;90.58;99760.41;5067992;28;20211;-73
2022/07/26 00:16:14;;;;;;;9.48;7.25;;;;;;;27.00;90.38;99760.50;5073581;28;20202;-74
2022/07/26 00:18:42;;;;;;;7.30;6.60;;;;;;;26.96;91.00;99766.97;5073340;28;20693;-74
2022/07/26 00:21:09;;;;;;;9.48;7.18;;;;;;;26.97;90.57;99757.16;5073156;28;20203;-74
2022/07/26 00:23:36;;;;;;;8.07;7.38;;;;;;;27.01;90.84;99764.88;5073774;28;20231;-73
2022/07/26 00:26:02;;;;;;;7.60;6.93;;;;;;;26.95;91.52;99765.25;5073267;28;20226;-73
2022/07/26 00:28:29;;;;;;;8.40;7.63;;;;;;;26.74;92.62;99750.47;5072592;28;20206;-73
2022/07/26 00:30:56;;;;;;;10.25;7.40;;;;;;;26.89;92.57;99765.59;5072389;28;20926;-73
2022/07/26 00:33:23;;;;;;;8.40;7.38;;;;;;;26.88;96.67;99763.88;5062981;28;20206;-74
2022/07/26 00:35:51;;;;;;;8.63;7.75;;;;;;;26.90;97.53;99756.66;5068496;28;20210;-73
2022/07/26 00:38:18;;;;;;;8.93;8.07;;;;;;;26.58;99.16;99745.13;5072830;28;20691;-74
2022/07/26 00:40:45;;;;;;;8.07;7.38;;;;;;;26.64;99.24;99757.25;5037786;28;20195;-73
2022/07/26 00:43:11;;;;;;;9.93;7.75;;;;;;;26.74;98.29;99761.09;5063522;28;20214;-73
2022/07/26 00:45:38;;;;;;;8.10;7.32;;;;;;;26.71;97.19;99755.09;5068561;28;20222;-73
2022/07/26 00:48:06;;;;;;;8.15;7.45;;;;;;;26.64;96.79;99757.25;5073043;28;20682;-73
2022/07/26 00:50:33;;;;;;;10.30;8.13;;;;;;;26.67;96.15;99749.09;5072866;28;20659;-74
2022/07/26 00:53:02;;;;;;;9.13;7.40;;;;;;;26.66;97.17;99752.69;5072965;28;20195;-73
2022/07/26 00:55:29;;;;;;;8.50;7.70;;;;;;;26.68;96.80;99744.63;5037868;28;20198;-74
2022/07/26 00:57:55;;;;;;;8.43;7.32;;;;;;;26.73;95.83;99746.06;5072919;28;20198;-74
2022/07/26 01:00:26;;;;;;;8.57;7.78;;;;;;;26.79;95.54;99753.69;5072871;28;20194;-73
2022/07/26 01:02:53;;;;;;;10.43;7.60;;;;;;;26.55;96.28;99721.38;5073107;28;20245;-73
2022/07/26 01:05:21;;;;;;;10.35;7.65;;;;;;;26.53;95.98;99720.63;5072376;28;20748;-74
2022/07/26 01:07:49;;;;;;;8.48;7.57;;;;;;;26.74;98.81;99742.47;5072795;28;20198;-73
2022/07/26 01:10:17;;;;;;;10.93;7.40;;;;;;;26.64;97.02;99746.59;5072312;28;20210;-74
2022/07/26 01:12:45;;;;;;;8.27;7.25;;;;;;;26.35;100.00;99718.97;5072300;28;20662;-73
2022/07/26 01:15:14;;;;;;;9.48;8.45;;;;;;;26.06;100.00;99736.47;5072869;28;20203;-73
2022/07/26 01:17:40;;;;;;;11.27;8.63;;;;;;;25.90;100.00;99726.78;5072727;28;20206;-73
2022/07/26 01:20:10;;;;;;;9.13;8.23;;;;;;;26.00;100.00;99731.50;5072136;28;20202;-73
2022/07/26 01:22:38;;;;;;;9.63;8.40;;;;;;;25.87;100.00;99703.84;5072791;28;20195;-72
2022/07/26 01:25:06;;;;;;;9.73;8.18;;;;;;;25.87;100.00;99714.47;5071983;28;20195;-73
2022/07/26 01:27:37;;;;;;;8.70;7.80;;;;;;;25.77;100.00;99715.06;5072599;28;20191;-73
2022/07/26 01:30:06;;;;;;;9.15;8.35;;;;;;;25.64;100.00;99701.59;5072110;28;20282;-72
2022/07/26 01:32:33;;;;;;;13.57;7.88;;;;;;;25.65;100.00;99713.91;5053875;28;20260;-74
2022/07/26 01:35:00;;;;;;;9.63;8.27;;;;;;;25.70;100.00;99709.22;5072421;28;20206;-74
2022/07/26 01:37:27;;;;;;;9.80;8.30;;;;;;;25.66;100.00;99715.63;5053673;28;20257;-73
2022/07/26 01:39:55;;;;;;;9.30;8.15;;;;;;;25.62;100.00;99716.72;5072129;28;20218;-72
2022/07/26 01:42:21;;;;;;;9.70;8.77;;;;;;;25.46;100.00;99683.91;5071525;28;20203;-73
2022/07/26 01:44:48;;;;;;;9.85;8.43;;;;;;;25.50;100.00;99710.25;5072221;28;20209;-73
2022/07/26 01:47:15;;;;;;;9.63;8.63;;;;;;;25.35;100.00;99694.22;5072285;28;20234;-73
2022/07/26 01:49:42;;;;;;;9.73;8.57;;;;;;;25.22;100.00;99686.03;5071828;28;20203;-73
2022/07/26 01:52:09;;;;;;;9.52;8.50;;;;;;;25.41;100.00;99705.38;5072145;28;20199;-73
2022/07/26 01:54:36;;;;;;;8.85;8.00;;;;;;;25.45;100.00;99711.41;5053111;28;20202;-73
2022/07/26 01:57:04;;;;;;;9.30;8.40;;;;;;;25.47;100.00;99693.59;5036619;28;20199;-72
2022/07/26 01:59:31;;;;;;;10.93;8.63;;;;;;;25.51;100.00;99719.06;5071366;28;20559;-74
2022/07/26 02:01:58;;;;;;;9.70;8.70;;;;;;;25.43;100.00;99707.97;5052451;28;20191;-74
2022/07/26 02:07:09;;;;;;;9.38;8.48;;;;;;;25.28;100.00;99704.31;5051695;28;20229;-73
2022/07/26 02:09:35;;;;;;;11.85;9.05;;;;;;;25.27;100.00;99704.38;5033206;28;20210;-74
2022/07/26 02:12:04;;;;;;;11.85;8.57;;;;;;;25.34;100.00;99703.13;5069650;28;20191;-73
2022/07/26 02:14:31;;;;;;;12.82;7.93;;;;;;;25.38;100.00;99704.69;5070573;28;20195;-74
2022/07/26 02:16:59;;;;;;;8.07;7.28;;;;;;;25.41;100.00;99701.88;5069879;28;20206;-74
2022/07/26 02:19:26;;;;;;;11.25;7.82;;;;;;;25.41;100.00;99705.38;5037477;28;20770;-73
2022/07/26 02:21:53;;;;;;;12.75;7.70;;;;;;;25.54;100.00;99703.00;5070542;28;20199;-74
2022/07/26 02:24:20;;;;;;;8.77;7.88;;;;;;;25.64;100.00;99712.19;5070832;28;20238;-74
2022/07/26 02:26:47;;;;;;;9.20;7.78;;;;;;;25.55;100.00;99691.41;5071263;28;20757;-74
2022/07/26 02:29:15;;;;;;;9.30;8.25;;;;;;;25.22;100.00;99640.06;5071175;28;20199;-74
2022/07/26 02:31:42;;;;;;;11.05;7.70;;;;;;;25.65;100.00;99713.91;5070896;28;20285;-74
2022/07/26 02:34:09;;;;;;;10.55;8.48;;;;;;;25.52;100.00;99720.78;5070710;28;20194;-74
2022/07/26 02:36:36;;;;;;;11.50;9.15;;;;;;;25.36;100.00;99720.72;5070813;28;20203;-74
2022/07/26 02:39:03;;;;;;;9.68;8.48;;;;;;;25.20;100.00;99700.31;5071103;28;20206;-74
2022/07/26 02:41:30;;;;;;;11.85;9.40;;;;;;;25.20;100.00;99705.63;5070222;28;20194;-74
2022/07/26 02:43:57;;;;;;;10.20;9.15;;;;;;;25.03;100.00;99694.09;5071085;28;20204;-73
2022/07/26 02:46:25;;;;;;;10.15;9.18;;;;;;;25.23;100.00;99706.31;5070919;28;20223;-73
2022/07/26 02:48:52;;;;;;;10.82;9.25;;;;;;;25.18;100.00;99709.19;5052033;28;20694;-74
2022/07/26 02:51:18;;;;;;;10.73;8.98;;;;;;;25.13;100.00;99713.91;5070626;28;20203;-73
2022/07/26 02:53:45;;;;;;;12.75;9.02;;;;;;;25.08;100.00;99718.56;5070971;28;20202;-74
2022/07/26 02:56:12;;;;;;;10.73;8.55;;;;;;;25.02;100.00;99718.88;5051155;28;20207;-74
2022/07/26 02:58:39;;;;;;;10.52;8.98;;;;;;;25.03;100.00;99720.63;5071073;28;20288;-74
2022/07/26 03:01:06;;;;;;;10.27;9.27;;;;;;;24.86;100.00;99695.84;5070200;28;20199;-74
2022/07/26 03:03:34;;;;;;;12.27;9.18;;;;;;;25.04;100.00;99713.53;5070909;28;20201;-75
2022/07/26 03:06:01;;;;;;;10.38;9.15;;;;;;;24.67;100.00;99711.78;5070185;28;20226;-75
2022/07/26 03:08:28;;;;;;;9.98;8.98;;;;;;;24.74;100.00;99699.06;5070101;28;20199;-75
2022/07/26 03:10:55;;;;;;;10.13;9.10;;;;;;;24.80;100.00;99691.66;5070101;28;20190;-74
2022/07/26 03:13:22;;;;;;;10.23;9.23;;;;;;;24.99;100.00;99716.41;5070220;28;20203;-75
2022/07/26 03:15:49;;;;;;;10.25;9.25;;;;;;;24.77;100.00;99691.81;5070312;28;20207;-75
2022/07/26 03:18:15;;;;;;;12.07;9.20;;;;;;;24.78;100.00;99692.69;5070020;28;20221;-75
2022/07/26 03:20:44;;;;;;;10.43;8.68;;;;;;;25.12;100.00;99714.84;5070169;28;20207;-75
2022/07/26 03:23:11;;;;;;;9.73;8.75;;;;;;;25.41;100.00;99720.44;5070093;28;20280;-75
2022/07/26 03:25:37;;;;;;;10.60;9.20;;;;;;;25.55;100.00;99720.63;5070546;28;20194;-76
2022/07/26 03:28:05;;;;;;;9.63;8.65;;;;;;;25.66;100.00;99697.03;5070071;28;20674;-76
2022/07/26 03:30:32;;;;;;;9.50;8.63;;;;;;;25.94;100.00;99731.81;5070009;28;20650;-75
2022/07/26 03:32:59;;;;;;;10.60;8.82;;;;;;;26.15;100.00;99733.31;5070320;28;20712;-76
2022/07/26 03:35:26;;;;;;;13.20;9.63;;;;;;;26.13;100.00;99737.88;5071004;28;20709;-77
2022/07/26 03:37:54;;;;;;;8.77;7.95;;;;;;;26.45;100.00;99740.59;5073661;28;20194;-77
2022/07/26 03:40:21;;;;;;;11.07;8.35;;;;;;;26.67;100.00;99743.78;5073650;28;20600;-77
2022/07/26 03:42:48;;;;;;;10.98;8.80;;;;;;;26.80;100.00;99728.81;5073515;28;20687;-76
2022/07/26 03:45:16;;;;;;;11.25;9.07;;;;;;;27.37;100.00;99739.72;5073857;28;20209;-75
2022/07/26 03:47:44;;;;;;;9.23;8.32;;;;;;;27.74;100.00;99755.25;5073361;28;20225;-75
2022/07/26 03:50:12;;;;;;;9.02;8.23;;;;;;;28.10;100.00;99751.31;5073545;28;20214;-75
2022/07/26 03:52:39;;;;;;;10.68;8.00;;;;;;;28.12;100.00;99752.06;5073818;28;20190;-73
2022/07/26 03:57:49;;;;;;;9.82;7.47;;;;;;;27.95;100.00;99737.09;5041640;28;20199;-76
2022/07/26 04:00:16;;;;;;;10.95;8.45;;;;;;;28.50;98.43;99755.84;5038134;28;20202;-75
2022/07/26 04:02:43;;;;;;;9.93;8.70;;;;;;;28.89;98.30;99753.31;5053933;28;20267;-75
2022/07/26 04:05:10;;;;;;;8.80;7.85;;;;;;;29.33;89.27;99753.06;5056774;28;20610;-74
2022/07/26 04:07:42;;;;;;;9.65;7.90;;;;;;;29.83;88.60;99754.94;5073770;28;20222;-74
2022/07/26 04:10:11;;;;;;;8.23;7.43;;;;;;;30.17;83.06;99741.91;5073271;28;20236;-75
2022/07/26 04:12:38;;;;;;;15.98;7.82;;;;;;;30.55;79.62;99726.66;5073558;28;20190;-74
2022/07/26 04:15:07;;;;;;;15.70;8.13;;;;;;;30.83;79.20;99747.75;5073056;28;20253;-74
2022/07/26 04:17:37;;;;;;;17.80;8.38;;;;;;;30.84;80.08;99752.16;5073306;28;20198;-75
2022/07/26 04:20:05;;;;;;;12.05;7.65;;;;;;;31.01;77.92;99747.38;5072409;28;20241;-77
2022/07/26 04:22:32;;;;;;;11.98;7.70;;;;;;;31.03;77.61;99745.47;5073296;28;20567;-77
2022/07/26 04:24:59;;;;;;;14.57;7.68;;;;;;;31.35;76.10;99751.94;5073613;28;20228;-77
2022/07/26 04:27:27;;;;;;;17.02;9.18;;;;;;;32.01;73.40;99755.75;5073390;28;20706;-74
2022/07/26 04:29:54;;;;;;;13.50;8.30;;;;;;;32.05;70.92;99754.53;5073151;28;20206;-74
2022/07/26 04:32:21;;;;;;;10.80;7.93;;;;;;;32.46;68.45;99752.16;5073066;28;20206;-75
2022/07/26 04:34:48;;;;;;;14.50;8.27;;;;;;;32.48;67.62;99746.63;5073270;28;20194;-75
2022/07/26 04:37:15;;;;;;;13.75;7.70;;;;;;;32.49;63.74;99743.00;5072939;28;20206;-74
2022/07/26 04:39:42;;;;;;;11.88;8.45;;;;;;;32.71;66.09;99751.03;5073072;28;20658;-74
2022/07/26 04:42:08;;;;;;;12.82;8.15;;;;;;;33.14;62.72;99754.59;5038068;28;20194;-75
2022/07/26 04:44:37;;;;;;;10.50;8.50;;;;;;;33.54;61.66;99762.84;5072833;28;20288;-74
2022/07/26 04:47:04;;;;;;;10.85;7.60;;;;;;;33.68;60.84;99738.34;5071907;28;20218;-74
2022/07/26 04:49:31;;;;;;;8.98;7.53;;;;;;;33.92;58.21;99764.13;5038203;28;20198;-75
2022/07/26 04:51:58;;;;;;;9.00;8.10;;;;;;;33.37;57.61;99744.59;5037268;28;20197;-74
2022/07/26 04:54:25;;;;;;;11.60;8.90;;;;;;;33.49;58.15;99754.34;5072978;28;20214;-74
2022/07/26 04:56:52;;;;;;;11.75;8.50;;;;;;;33.40;58.00;99760.47;5072024;28;20629;-74
2022/07/26 04:59:19;;;;;;;16.35;8.93;;;;;;;33.73;56.74;99757.63;5072615;28;20193;-74
2022/07/26 05:01:47;;;;;;;8.95;7.85;;;;;;;33.72;55.43;99755.94;5071928;28;20194;-74
2022/07/26 05:04:14;;;;;;;7.32;6.72;;;;;;;31.38;60.47;99739.16;5072881;28;20670;-75
2022/07/26 05:06:41;;;;;;;9.32;6.65;;;;;;;31.63;59.83;99743.53;5073135;28;20229;-74
2022/07/26 05:09:09;;;;;;;14.40;7.15;;;;;;;32.43;58.12;99753.22;5037473;28;20209;-74
2022/07/26 05:11:36;;;;;;;7.20;6.50;;;;;;;33.36;54.45;99759.00;5072475;28;20256;-74
2022/07/26 05:14:03;;;;;;;23.50;8.82;;;;;;;33.69;57.53;99750.81;5036063;28;20217;-74
2022/07/26 05:16:30;;;;;;;17.38;7.70;;;;;;;34.02;55.38;99752.44;5071745;28;20190;-75
2022/07/26 05:18:58;;;;;;;15.90;8.70;;;;;;;34.56;54.39;99735.09;5072313;28;20198;-74
2022/07/26 05:21:26;;;;;;;8.90;7.25;;;;;;;34.77;52.54;99743.97;5072291;28;20194;-74
2022/07/26 05:23:53;;;;;;;10.35;6.28;;;;;;;34.87;50.41;99758.31;5072656;28;20230;-74
2022/07/26 05:26:20;;;;;;;11.55;8.07;;;;;;;35.66;51.64;99753.69;5071957;28;20213;-75
2022/07/26 05:28:47;;;;;;;9.02;7.63;;;;;;;35.63;50.54;99771.03;5072009;28;20233;-74
2022/07/26 05:31:14;;;;;;;13.10;8.10;;;;;;;35.53;51.39;99761.22;5071607;28;20580;-74
2022/07/26 05:33:41;;;;;;;11.82;8.38;;;;;;;34.98;52.55;99760.03;5071789;28;20201;-74
2022/07/26 05:36:09;;;;;;;8.98;7.90;;;;;;;33.91;57.01;99767.78;5071738;28;20662;-74
2022/07/26 05:38:36;;;;;;;11.35;8.40;;;;;;;33.37;58.79;99761.59;5037048;28;20625;-74
2022/07/26 05:41:03;;;;;;;20.92;8.23;;;;;;;33.83;57.92;99773.84;5072081;28;20256;-74
2022/07/26 05:43:30;;;;;;;8.63;7.82;;;;;;;33.83;57.39;99765.75;5036587;28;20201;-74
2022/07/26 05:45:57;;;;;;;7.85;7.05;;;;;;;34.00;57.55;99772.41;5071567;28;20202;-74
2022/07/26 05:48:24;;;;;;;10.40;7.68;;;;;;;33.64;58.66;99753.03;5030217;28;20214;-74
2022/07/26 05:50:51;;;;;;;11.32;7.22;;;;;;;33.37;60.89;99766.09;5036102;28;20186;-76
2022/07/26 05:53:20;;;;;;;9.23;8.35;;;;;;;33.30;61.53;99759.53;5070308;28;20198;-74
2022/07/26 05:55:46;;;;;;;10.82;8.13;;;;;;;32.58;63.93;99752.97;5070897;28;20210;-74
2022/07/26 05:58:13;;;;;;;13.38;8.55;;;;;;;32.78;63.77;99763.84;5050503;28;20678;-72
2022/07/26 06:00:40;;;;;;;11.20;9.25;;;;;;;32.91;63.47;99761.84;5070921;28;20263;-71
2022/07/26 06:06:19;;;;;;;10.85;8.77;;;;;;;32.76;63.71;99738.94;5198896;27;20504;-75
2022/07/26 06:08:45;;;;;;;11.85;9.15;;;;;;;33.13;62.49;99754.72;5189325;27;20202;-72
2022/07/26 06:11:12;;;;;;;22.98;16.13;;;;;;;32.88;61.32;99727.19;5150005;27;20187;-70
2022/07/26 06:13:39;;;;;;;13.07;10.60;;;;;;;32.58;62.15;99740.41;5171878;27;20202;-72
2022/07/26 06:16:06;;;;;;;11.32;9.35;;;;;;;32.40;63.36;99758.84;5177903;27;20537;-75
2022/07/26 06:18:33;;;;;;;9.45;8.30;;;;;;;32.31;65.06;99748.00;5186493;27;20194;-72
2022/07/26 06:21:00;;;;;;;16.63;8.65;;;;;;;31.98;68.17;99732.72;5190239;27;20190;-72
2022/07/26 06:23:28;;;;;;;11.65;8.95;;;;;;;32.06;67.78;99749.09;5191218;27;20662;-72
2022/07/26 06:25:55;;;;;;;10.82;9.10;;;;;;;31.91;70.17;99752.94;5177309;27;20606;-72
2022/07/26 06:28:22;;;;;;;12.02;9.40;;;;;;;31.74;70.73;99756.97;5128137;27;20603;-72
2022/07/26 06:30:49;;;;;;;14.18;9.82;;;;;;;30.87;74.47;99710.91;5173360;27;20209;-72
2022/07/26 06:33:16;;;;;;;14.15;8.82;;;;;;;30.79;77.74;99748.94;5132697;27;20198;-72
2022/07/26 06:35:42;;;;;;;20.88;10.88;;;;;;;30.69;80.07;99741.69;5179966;27;20198;-74
2022/07/26 06:38:09;;;;;;;15.77;11.45;;;;;;;30.42;84.10;99739.22;5186861;27;20198;-72
2022/07/26 06:40:37;;;;;;;21.75;12.35;;;;;;;29.97;85.78;99741.50;5183291;27;20190;-72
2022/07/26 06:43:04;;;;;;;19.52;11.55;;;;;;;29.96;86.31;99737.13;5186707;27;20193;-72
2022/07/26 06:45:31;;;;;;;20.25;12.65;;;;;;;29.94;86.93;99728.34;5187190;27;20237;-73
2022/07/26 06:47:58;;;;;;;22.42;11.48;;;;;;;29.99;85.14;99715.50;5149548;27;20214;-75
2022/07/26 06:50:25;;;;;;;15.57;12.02;;;;;;;30.06;85.18;99736.47;5180628;27;20206;-76
2022/07/26 06:52:52;;;;;;;17.05;11.07;;;;;;;30.13;83.79;99732.41;5165696;27;20210;-74
2022/07/26 06:55:19;;;;;;;13.45;10.50;;;;;;;30.27;81.84;99729.59;5111695;27;20206;-75
2022/07/26 06:57:47;;;;;;;15.25;10.20;;;;;;;30.65;79.63;99738.41;5166088;27;20214;-74
2022/07/26 07:00:15;;;;;;;11.93;10.55;;;;;;;30.83;78.86;99720.97;5128913;27;20282;-76
2022/07/26 07:02:42;;;;;;;21.63;10.73;;;;;;;31.04;78.85;99733.78;5165602;27;20636;-78
2022/07/26 07:05:10;;;;;;;18.58;10.23;;;;;;;30.96;77.73;99727.13;5165456;27;20323;-76
2022/07/26 07:07:37;;;;;;;19.48;10.15;;;;;;;31.08;76.63;99733.44;5112528;27;20634;-77
2022/07/26 07:10:05;;;;;;;17.25;9.95;;;;;;;30.63;79.64;99729.63;5165805;27;20195;-74
2022/07/26 07:12:32;;;;;;;12.38;9.05;;;;;;;30.98;77.95;99724.38;5168841;27;20202;-76
2022/07/26 07:15:00;;;;;;;12.73;9.40;;;;;;;31.06;75.38;99731.84;5184408;27;20673;-76
2022/07/26 07:17:27;;;;;;;10.85;8.85;;;;;;;31.02;75.46;99731.22;5168088;27;20202;-75
2022/07/26 07:19:54;;;;;;;14.10;8.48;;;;;;;31.30;74.35;99717.44;5175787;27;20654;-74
2022/07/26 07:22:21;;;;;;;12.20;7.85;;;;;;;31.15;74.41;99723.09;5175613;27;20203;-75
2022/07/26 07:24:47;;;;;;;13.95;8.68;;;;;;;31.25;74.29;99733.00;5175946;27;20229;-75
2022/07/26 07:27:14;;;;;;;8.55;7.72;;;;;;;31.34;70.82;99734.16;5175496;27;20199;-77
2022/07/26 07:29:41;;;;;;;9.00;8.20;;;;;;;31.42;70.75;99729.06;5175127;27;20612;-76
2022/07/26 07:32:09;;;;;;;8.98;8.15;;;;;;;31.27;68.29;99717.69;5175642;27;20202;-73
2022/07/26 07:34:36;;;;;;;10.18;7.88;;;;;;;31.18;70.63;99737.13;5175470;27;20659;-75
2022/07/26 07:37:04;;;;;;;10.05;8.18;;;;;;;31.27;71.79;99732.91;5175575;27;20210;-72
2022/07/26 07:39:31;;;;;;;11.35;7.60;;;;;;;31.41;69.68;99738.06;5174970;27;20666;-75
2022/07/26 07:41:57;;;;;;;15.57;8.25;;;;;;;31.27;70.16;99720.38;5167268;27;20200;-74
2022/07/26 07:44:24;;;;;;;9.77;7.75;;;;;;;31.63;69.65;99732.81;5173290;27;20229;-75
2022/07/26 07:46:51;;;;;;;11.63;7.78;;;;;;;31.51;66.87;99725.66;5175588;27;20570;-74
2022/07/26 07:49:20;;;;;;;7.65;6.85;;;;;;;31.53;65.86;99686.25;5174873;27;20214;-73
2022/07/26 07:51:48;;;;;;;8.07;7.05;;;;;;;32.01;65.35;99713.69;5175166;27;20293;-73
2022/07/26 07:54:15;;;;;;;9.32;7.95;;;;;;;32.14;61.86;99725.19;5166981;27;20198;-73
2022/07/26 07:56:42;;;;;;;7.97;7.20;;;;;;;32.06;60.70;99698.13;5169638;27;20199;-75
2022/07/26 07:59:09;;;;;;;11.20;7.47;;;;;;;32.10;61.03;99725.56;5151033;27;20671;-75
2022/07/26 08:01:36;;;;;;;8.77;7.45;;;;;;;32.15;59.20;99731.41;5170251;27;20213;-73
2022/07/26 08:04:02;;;;;;;7.53;6.75;;;;;;;32.09;58.09;99730.06;5117522;27;20231;-73
2022/07/26 08:06:31;;;;;;;8.52;7.35;;;;;;;32.41;57.44;99722.13;5135197;27;20590;-74
2022/07/26 08:08:57;;;;;;;7.78;7.07;;;;;;;32.41;56.86;99716.75;5134595;27;20214;-75
2022/07/26 08:11:24;;;;;;;8.60;7.03;;;;;;;32.28;56.93;99716.06;5171845;27;20213;-76
2022/07/26 08:13:51;;;;;;;9.73;7.65;;;;;;;32.54;57.63;99716.59;5167359;27;20702;-76
2022/07/26 08:16:18;;;;;;;8.88;6.60;;;;;;;32.36;56.28;99713.59;5168919;27;20209;-73
2022/07/26 08:18:45;;;;;;;7.30;6.70;;;;;;;32.52;54.96;99708.69;5159655;27;20704;-72
2022/07/26 08:21:11;;;;;;;7.43;6.60;;;;;;;32.56;51.94;99709.28;5159262;27;20328;-72
2022/07/26 08:23:40;;;;;;;6.63;5.90;;;;;;;32.39;51.19;99703.44;5116600;27;20203;-73
2022/07/26 08:26:07;;;;;;;6.25;5.75;;;;;;;32.41;50.88;99700.66;5162604;27;20214;-73
2022/07/26 08:28:34;;;;;;;6.80;5.95;;;;;;;32.39;51.25;99700.75;5120774;27;20721;-73
2022/07/26 08:31:00;;;;;;;6.35;5.85;;;;;;;32.39;50.57;99698.09;5160828;27;20195;-73
2022/07/26 08:33:27;;;;;;;7.18;6.55;;;;;;;32.54;50.56;99684.38;5170352;27;20225;-73
2022/07/26 08:35:54;;;;;;;6.85;5.80;;;;;;;32.54;48.68;99700.50;5170485;27;20203;-72
2022/07/26 08:38:21;;;;;;;6.13;5.70;;;;;;;32.53;48.80;99699.66;5116466;27;20664;-73
2022/07/26 08:40:49;;;;;;;9.27;6.05;;;;;;;32.78;49.86;99699.38;5165724;27;20199;-73
2022/07/26 08:43:16;;;;;;;6.85;6.25;;;;;;;32.83;48.88;99683.72;5122312;27;20200;-73
2022/07/26 08:45:44;;;;;;;6.05;5.60;;;;;;;32.89;47.27;99696.63;5165886;27;20596;-74
2022/07/26 08:48:11;;;;;;;6.55;5.85;;;;;;;33.00;46.69;99676.94;5169491;27;20191;-73
2022/07/26 08:50:39;;;;;;;5.90;5.50;;;;;;;33.19;45.58;99700.47;5130001;27;20206;-73
2022/07/26 08:53:08;;;;;;;6.47;5.72;;;;;;;33.16;45.67;99687.28;5170123;27;20281;-72
2022/07/26 08:55:36;;;;;;;6.22;5.63;;;;;;;33.19;45.60;99670.91;5166586;27;20195;-73
2022/07/26 08:58:04;;;;;;;6.50;5.90;;;;;;;33.46;44.22;99700.81;5133020;27;20268;-73
2022/07/26 09:00:32;;;;;;;5.90;5.40;;;;;;;33.77;43.32;99694.53;5131599;27;20195;-74
2022/07/26 09:03:02;;;;;;;6.25;5.53;;;;;;;34.08;40.88;99695.34;5158858;27;20221;-72
2022/07/26 09:05:31;;;;;;;5.55;5.05;;;;;;;34.01;39.71;99674.50;5158641;27;20255;-73
2022/07/26 09:07:58;;;;;;;5.90;4.95;;;;;;;34.01;38.55;99690.66;5158489;27;20201;-73
2022/07/26 09:10:25;;;;;;;5.55;5.00;;;;;;;33.72;39.14;99661.78;5158598;27;20195;-73
2022/07/26 09:12:56;;;;;;;5.35;4.85;;;;;;;33.85;38.07;99666.94;5160717;27;20196;-73
2022/07/26 09:15:26;;;;;;;6.65;5.28;;;;;;;33.88;38.47;99694.44;5158458;27;20199;-72
2022/07/26 09:17:55;;;;;;;9.40;5.43;;;;;;;33.77;38.23;99693.66;5121546;27;20198;-73
2022/07/26 09:20:24;;;;;;;6.07;5.45;;;;;;;33.79;37.76;99676.41;5160106;27;20186;-73
2022/07/26 09:23:03;;;;;;;6.93;4.60;;;;;;;33.76;37.02;99679.34;5162275;27;20207;-71
2022/07/26 09:25:32;;;;;;;5.53;5.13;;;;;;;33.75;36.74;99680.34;5158946;27;20211;-71
2022/07/26 09:28:00;;;;;;;5.45;4.85;;;;;;;34.12;38.57;99677.09;5159833;27;20206;-72
2022/07/26 09:30:29;;;;;;;5.28;4.80;;;;;;;34.21;36.50;99669.06;5159041;27;20190;-72
2022/07/26 09:32:58;;;;;;;9.45;8.30;;;;;;;34.09;36.44;99672.00;5160007;27;20218;-73
2022/07/26 09:35:25;;;;;;;5.60;5.20;;;;;;;33.94;36.32;99647.28;5160456;27;20202;-74
2022/07/26 09:37:52;;;;;;;5.45;4.93;;;;;;;33.97;36.25;99673.94;5159156;27;20206;-73
2022/07/26 09:40:19;;;;;;;5.05;4.65;;;;;;;34.09;36.09;99639.69;5157619;27;20195;-73
2022/07/26 09:42:57;;;;;;;5.95;5.35;;;;;;;34.46;36.68;99670.41;5108817;27;20262;-75
2022/07/26 09:45:25;;;;;;;7.20;5.03;;;;;;;34.28;35.94;99642.50;5104229;27;20720;-75
2022/07/26 09:47:53;;;;;;;5.53;4.93;;;;;;;34.57;36.06;99661.38;5148582;27;20204;-74
2022/07/26 09:50:22;;;;;;;5.35;4.82;;;;;;;34.45;37.24;99657.09;5111628;27;20199;-74
2022/07/26 09:53:00;;;;;;;5.20;4.80;;;;;;;34.44;38.02;99615.00;5157823;27;20214;-74
2022/07/26 09:55:28;;;;;;;5.30;4.80;;;;;;;34.53;37.81;99650.03;5102206;27;20203;-74
2022/07/26 09:57:56;;;;;;;6.72;5.32;;;;;;;34.55;38.29;99656.13;5160046;27;20203;-74
2022/07/26 10:00:24;;;;;;;5.03;4.63;;;;;;;34.59;37.60;99652.16;5113047;27;20191;-74
2022/07/26 10:02:53;;;;;;;7.32;4.93;;;;;;;34.80;36.99;99658.31;5160026;27;20206;-74
2022/07/26 10:05:21;;;;;;;5.70;5.00;;;;;;;34.78;36.63;99654.06;5168635;27;20314;-74
2022/07/26 10:07:49;;;;;;;5.10;4.70;;;;;;;34.98;35.91;99649.53;5115428;27;20273;-75
2022/07/26 10:10:23;;;;;;;5.50;5.00;;;;;;;35.17;35.46;99652.25;5168728;27;20589;-72
2022/07/26 10:12:51;;;;;;;5.55;5.03;;;;;;;35.20;35.79;99649.25;5132350;27;20202;-74
2022/07/26 10:15:38;;;;;;;5.30;4.90;;;;;;;35.09;36.15;99625.97;5169406;27;20199;-71
2022/07/26 10:18:08;;;;;;;5.30;4.90;;;;;;;35.48;36.18;99640.25;5168827;27;20258;-74
2022/07/26 10:20:44;;;;;;;5.90;5.30;;;;;;;34.98;36.55;99638.72;5169365;27;20202;-75
2022/07/26 10:23:41;;;;;;;5.93;5.43;;;;;;;34.82;36.16;99636.59;5169171;27;20658;-72
2022/07/26 10:26:11;;;;;;;12.18;5.18;;;;;;;34.83;35.05;99631.09;5063587;28;21352;-73
2022/07/26 10:28:40;;;;;;;6.07;4.68;;;;;;;35.15;34.97;99630.81;5063202;28;20202;-73
2022/07/26 10:31:34;;;;;;;7.38;5.05;;;;;;;35.05;35.73;99632.63;5047008;28;20217;-72
2022/07/26 10:34:03;;;;;;;5.53;5.22;;;;;;;34.79;34.89;99613.50;5030001;28;20190;-71
2022/07/26 10:36:33;;;;;;;5.72;5.20;;;;;;;34.80;34.96;99612.50;5063806;28;20206;-72
2022/07/26 10:39:06;;;;;;;6.47;4.82;;;;;;;34.97;34.55;99621.72;5063573;28;20205;-73
2022/07/26 10:41:35;;;;;;;5.60;5.10;;;;;;;34.73;33.89;99587.13;5063926;28;20213;-72
2022/07/26 10:44:26;;;;;;;7.20;6.13;;;;;;;34.84;33.88;99616.63;5063226;28;20569;-74
2022/07/26 10:46:59;;;;;;;7.18;5.72;;;;;;;34.97;34.18;99615.47;5001649;28;20228;-76
2022/07/26 10:49:34;;;;;;;5.35;4.95;;;;;;;35.15;33.70;99620.03;4997698;28;20288;-76
2022/07/26 10:52:15;;;;;;;5.53;4.97;;;;;;;35.06;33.74;99620.00;5005254;28;20192;-74
2022/07/26 10:55:17;;;;;;;5.43;5.03;;;;;;;35.16;34.28;99612.78;5006354;28;20208;-73
2022/07/26 10:57:47;;;;;;;5.30;4.80;;;;;;;34.98;34.29;99601.00;5005695;28;20224;-72
2022/07/26 11:00:17;;;;;;;6.20;4.82;;;;;;;35.27;34.35;99604.53;5005804;28;20615;-73
2022/07/26 11:02:44;;;;;;;5.20;4.80;;;;;;;35.33;34.62;99595.84;5038391;28;20206;-74
2022/07/26 11:05:15;;;;;;;8.43;4.57;;;;;;;35.50;34.29;99595.09;5066430;28;20229;-74
2022/07/26 11:07:52;;;;;;;5.53;4.90;;;;;;;35.20;33.45;99592.63;5066761;28;20201;-74
2022/07/26 11:10:26;;;;;;;5.68;4.90;;;;;;;35.43;34.37;99593.97;5062456;28;20205;-73
2022/07/26 11:13:11;;;;;;;6.97;4.78;;;;;;;35.64;34.47;99589.25;5015362;28;20199;-73
2022/07/26 11:15:40;;;;;;;5.10;4.70;;;;;;;35.74;33.65;99587.38;5066095;28;20202;-73
2022/07/26 11:18:20;;;;;;;5.05;4.60;;;;;;;35.29;33.59;99583.66;5065836;28;20205;-72
2022/07/26 11:20:51;;;;;;;5.20;4.80;;;;;;;35.30;32.95;99567.34;5064832;28;20225;-72
2022/07/26 11:23:32;;;;;;;5.20;4.80;;;;;;;35.44;34.52;99571.41;5106002;27;20194;-74
2022/07/26 11:26:22;;;;;;;5.60;5.10;;;;;;;35.36;33.81;99568.59;5114638;27;20234;-74
2022/07/26 11:28:54;;;;;;;5.40;5.00;;;;;;;35.29;33.54;99567.47;5072377;28;20276;-72
2022/07/26 11:31:25;;;;;;;7.05;4.72;;;;;;;35.29;34.24;99562.09;5079605;28;20985;-72
2022/07/26 11:33:53;;;;;;;5.97;5.10;;;;;;;35.38;33.87;99565.75;5076670;28;20208;-74
2022/07/26 11:36:40;;;;;;;6.25;4.60;;;;;;;35.58;33.33;99560.13;5085415;28;20666;-74
2022/07/26 11:39:09;;;;;;;5.82;5.20;;;;;;;35.71;33.57;99557.97;5086715;28;20208;-75
2022/07/26 11:41:36;;;;;;;39.15;24.15;;;;;;;35.31;34.63;99550.19;5086514;28;20665;-71